Time;durP1;ratioP1;P1;durP2;ratioP2;P2;SDS_P1;SDS_P2;PMS_P1;PMS_P2;Temp;Humidity;BMP_temperature;BMP_pressure;BME280_temperature;BME280_humidity;BME280_pressure;Samples;Min_cycle;Max_cycle;Signal;HPM_P1;HPM_P2
2022/06/08 00:01:33;;;;;;;6.68;3.50;;;;;;;12.48;100.00;96239.75;4998812;28;20095;-72
2022/06/08 00:04:01;;;;;;;7.35;3.60;;;;;;;12.40;100.00;96237.59;4996643;28;20041;-76
2022/06/08 00:06:27;;;;;;;6.50;3.42;;;;;;;12.36;100.00;96235.69;5012963;28;20056;-72
2022/06/08 00:08:52;;;;;;;5.93;3.25;;;;;;;12.30;100.00;96224.16;4992773;28;20409;-72
2022/06/08 00:11:19;;;;;;;14.77;3.70;;;;;;;12.28;100.00;96226.28;4997506;28;20495;-72
2022/06/08 00:13:44;;;;;;;4.63;2.85;;;;;;;12.24;100.00;96230.56;4998430;28;20170;-72
2022/06/08 00:16:11;;;;;;;6.43;2.90;;;;;;;12.23;100.00;96220.91;4998597;28;20526;-74
2022/06/08 00:18:39;;;;;;;6.10;3.30;;;;;;;12.24;100.00;96227.88;4996886;28;20091;-73
2022/06/08 00:21:05;;;;;;;6.68;3.00;;;;;;;12.24;100.00;96222.53;4997150;28;20081;-72
2022/06/08 00:23:30;;;;;;;6.13;2.97;;;;;;;12.18;100.00;96207.47;4994339;28;20046;-75
2022/06/08 00:25:56;;;;;;;4.53;2.83;;;;;;;12.19;100.00;96217.13;4996809;28;20096;-75
2022/06/08 00:28:21;;;;;;;5.95;3.08;;;;;;;12.17;100.00;96211.22;4993945;28;20759;-74
2022/06/08 00:30:47;;;;;;;6.57;3.17;;;;;;;12.13;100.00;96215.50;4998082;28;20049;-72
2022/06/08 00:33:13;;;;;;;10.48;3.47;;;;;;;12.16;100.00;96215.00;4999816;28;20345;-72
2022/06/08 00:35:38;;;;;;;8.15;3.03;;;;;;;12.08;100.00;96213.63;4994065;28;20046;-72
2022/06/08 00:38:04;;;;;;;6.30;3.38;;;;;;;12.07;100.00;96206.66;5017207;28;20584;-74
2022/06/08 00:40:41;;;;;;;5.57;3.22;;;;;;;12.04;100.00;96204.47;4996997;28;20351;-75
2022/06/08 00:43:07;;;;;;;9.30;3.25;;;;;;;11.98;100.00;96210.88;4996200;28;20053;-72
2022/06/08 00:45:33;;;;;;;5.65;3.10;;;;;;;11.95;100.00;96212.22;4997717;28;20044;-73
2022/06/08 00:48:02;;;;;;;8.25;3.22;;;;;;;11.86;100.00;96207.63;4995434;28;20042;-73
2022/06/08 00:50:38;;;;;;;6.28;3.22;;;;;;;11.84;100.00;96207.91;4995493;28;20088;-73
2022/06/08 00:53:05;;;;;;;7.43;3.08;;;;;;;11.84;100.00;96201.75;4994928;28;20051;-75
2022/06/08 00:55:34;;;;;;;9.27;3.30;;;;;;;11.80;100.00;96201.44;4996170;28;20038;-75
2022/06/08 00:58:10;;;;;;;6.32;3.42;;;;;;;11.79;100.00;96204.34;4996170;28;20100;-72
2022/06/08 01:00:38;;;;;;;6.03;3.10;;;;;;;11.78;100.00;96195.50;4995853;28;20476;-73
2022/06/08 01:03:06;;;;;;;7.90;3.13;;;;;;;11.87;100.00;96206.56;4995455;28;20597;-73
2022/06/08 01:05:46;;;;;;;6.07;3.55;;;;;;;11.88;100.00;96202.81;4992244;28;20143;-72
2022/06/08 01:08:36;;;;;;;5.55;2.75;;;;;;;11.94;100.00;96205.25;4997446;28;20038;-72
2022/06/08 01:11:10;;;;;;;5.07;2.97;;;;;;;11.97;100.00;96196.69;4992238;28;20137;-76
2022/06/08 01:13:38;;;;;;;7.43;3.35;;;;;;;12.03;100.00;96204.75;4994633;28;20145;-72
2022/06/08 01:16:11;;;;;;;5.95;3.17;;;;;;;11.99;100.00;96202.59;4997176;28;20052;-74
2022/06/08 01:18:37;;;;;;;5.47;3.20;;;;;;;11.99;100.00;96196.44;4992765;28;20044;-72
2022/06/08 01:21:18;;;;;;;8.13;3.22;;;;;;;12.04;100.00;96201.00;4996915;28;20046;-75
2022/06/08 01:23:45;;;;;;;5.20;2.20;;;;;;;12.04;100.00;96201.78;4995984;28;20057;-75
2022/06/08 01:26:15;;;;;;;5.10;3.13;;;;;;;12.13;100.00;96202.09;4995407;28;20283;-73
2022/06/08 01:28:44;;;;;;;5.87;2.73;;;;;;;12.20;100.00;96199.97;4992716;28;20124;-76
2022/06/08 01:31:23;;;;;;;10.63;3.20;;;;;;;12.21;100.00;96194.31;4995071;28;20113;-72
2022/06/08 01:34:01;;;;;;;5.13;2.50;;;;;;;12.32;100.00;96195.16;5000649;28;20817;-73
2022/06/08 01:36:38;;;;;;;6.28;2.70;;;;;;;12.38;100.00;96187.94;4997145;28;20152;-73
2022/06/08 01:39:44;;;;;;;5.90;2.80;;;;;;;12.51;100.00;96174.00;4991500;28;20054;-72
2022/06/08 01:42:19;;;;;;;4.70;2.13;;;;;;;12.58;100.00;96174.53;4977755;28;20424;-72
2022/06/08 01:45:29;;;;;;;6.07;2.20;;;;;;;12.66;100.00;96157.09;4994531;28;20061;-72
2022/06/08 01:48:31;;;;;;;5.85;2.55;;;;;;;12.72;100.00;96159.50;4988135;28;20107;-72
2022/06/08 01:51:20;;;;;;;9.10;2.40;;;;;;;12.79;100.00;96164.63;4987359;28;20049;-73
2022/06/08 01:54:02;;;;;;;5.80;2.40;;;;;;;12.85;100.00;96157.38;4992501;28;20076;-72
2022/06/08 01:56:53;;;;;;;6.25;2.53;;;;;;;12.90;100.00;96154.66;5009385;28;20064;-73
2022/06/08 01:59:56;;;;;;;4.50;2.42;;;;;;;12.90;100.00;96147.41;4994087;28;20045;-74
2022/06/08 02:02:22;;;;;;;3.78;2.15;;;;;;;12.92;100.00;96142.59;5011102;28;20103;-74
2022/06/08 02:05:03;;;;;;;9.88;2.60;;;;;;;12.98;100.00;96140.69;4996978;28;20461;-74
2022/06/08 02:07:35;;;;;;;4.43;2.42;;;;;;;13.00;100.00;96125.94;4996765;28;20090;-74
2022/06/08 02:10:12;;;;;;;4.32;2.20;;;;;;;13.08;100.00;96130.75;4992011;28;20053;-72
2022/06/08 02:12:46;;;;;;;4.28;2.28;;;;;;;13.10;100.00;96131.28;4994791;28;20049;-75
2022/06/08 02:15:18;;;;;;;5.03;2.35;;;;;;;13.08;100.00;96130.75;5010269;28;20420;-73
2022/06/08 02:17:57;;;;;;;7.03;2.40;;;;;;;13.11;100.00;96129.38;4993874;28;20042;-76
2022/06/08 02:20:39;;;;;;;5.07;2.08;;;;;;;13.07;100.00;96133.69;4996127;28;20421;-72
2022/06/08 02:23:18;;;;;;;6.78;2.25;;;;;;;13.06;100.00;96122.13;5008835;28;20087;-74
2022/06/08 02:25:55;;;;;;;6.30;2.30;;;;;;;13.04;100.00;96120.81;4975090;28;20033;-72
2022/06/08 02:28:44;;;;;;;5.30;2.60;;;;;;;13.06;100.00;96119.44;4995654;28;20493;-75
2022/06/08 02:31:24;;;;;;;6.13;2.47;;;;;;;12.88;100.00;96116.53;4993309;28;20108;-73
2022/06/08 02:36:58;;;;;;;4.30;2.35;;;;;;;12.82;100.00;96105.00;4995767;28;20690;-76
2022/06/08 02:39:50;;;;;;;7.75;2.20;;;;;;;12.91;100.00;96111.41;5013096;28;20451;-72
2022/06/08 02:42:23;;;;;;;4.18;2.22;;;;;;;12.94;100.00;96110.09;4976670;28;20042;-72
2022/06/08 02:44:57;;;;;;;6.05;2.42;;;;;;;12.87;100.00;96096.94;5007520;28;20034;-73
2022/06/08 02:47:30;;;;;;;11.00;2.65;;;;;;;12.82;100.00;96091.56;4993075;28;20196;-72
2022/06/08 02:50:04;;;;;;;9.68;2.97;;;;;;;12.64;100.00;96084.09;4992945;28;20041;-74
2022/06/08 02:52:32;;;;;;;4.82;2.58;;;;;;;12.55;100.00;96100.72;4993275;28;20041;-74
2022/06/08 02:54:59;;;;;;;8.40;3.22;;;;;;;12.63;100.00;96093.22;4989510;28;20069;-74
2022/06/08 02:57:27;;;;;;;8.45;3.38;;;;;;;12.67;100.00;96089.69;5015019;28;20116;-72
2022/06/08 03:00:11;;;;;;;7.72;3.58;;;;;;;12.70;100.00;96096.44;4991045;28;20042;-73
2022/06/08 03:03:08;;;;;;;5.28;3.13;;;;;;;12.73;100.00;96088.63;4991346;28;20057;-75
2022/06/08 03:05:40;;;;;;;6.22;3.58;;;;;;;12.79;100.00;96094.81;4993993;28;20062;-74
2022/06/08 03:08:45;;;;;;;8.65;3.00;;;;;;;12.78;100.00;96094.00;4992876;28;20499;-72
2022/06/08 03:11:12;;;;;;;5.30;3.20;;;;;;;12.51;100.00;96094.28;4938873;28;20110;-73
2022/06/08 03:13:39;;;;;;;7.30;3.38;;;;;;;12.53;100.00;96099.41;4955281;28;20420;-72
2022/06/08 03:16:08;;;;;;;6.63;3.05;;;;;;;12.38;100.00;96097.53;4962733;28;20060;-72
2022/06/08 03:18:35;;;;;;;7.88;3.38;;;;;;;12.37;100.00;96093.19;5008547;28;20385;-72
2022/06/08 03:21:03;;;;;;;8.60;3.60;;;;;;;12.26;100.00;96105.00;4992767;28;20112;-73
2022/06/08 03:23:31;;;;;;;6.15;3.53;;;;;;;12.24;100.00;96105.28;5011688;28;20743;-74
2022/06/08 03:25:58;;;;;;;6.55;3.55;;;;;;;12.25;100.00;96098.84;4991842;28;20510;-74
2022/06/08 03:28:23;;;;;;;5.57;3.47;;;;;;;12.32;100.00;96100.47;4992856;28;20046;-74
2022/06/08 03:30:51;;;;;;;7.30;3.10;;;;;;;12.40;100.00;96100.72;4991250;28;20562;-72
2022/06/08 03:33:17;;;;;;;6.85;3.85;;;;;;;12.51;100.00;96096.97;4991523;28;20133;-74
2022/06/08 03:35:42;;;;;;;6.18;3.13;;;;;;;12.38;100.00;96100.22;4995360;28;20053;-73
2022/06/08 03:38:09;;;;;;;9.15;4.03;;;;;;;12.27;100.00;96093.22;4993875;28;20128;-72
2022/06/08 03:40:37;;;;;;;8.38;4.25;;;;;;;12.35;100.00;96099.91;4995656;28;20041;-76
2022/06/08 03:43:02;;;;;;;6.85;3.92;;;;;;;12.26;100.00;96089.72;4997003;28;20042;-73
2022/06/08 03:45:36;;;;;;;13.27;4.80;;;;;;;12.18;100.00;96092.13;4993822;28;20848;-74
2022/06/08 03:48:01;;;;;;;7.45;4.47;;;;;;;12.04;100.00;96094.53;4998036;28;20061;-75
2022/06/08 03:50:30;;;;;;;8.60;4.95;;;;;;;12.00;100.00;96101.50;4997790;28;20096;-75
2022/06/08 03:52:58;;;;;;;12.02;6.72;;;;;;;11.91;100.00;96100.44;4984761;28;20038;-72
2022/06/08 03:55:26;;;;;;;8.98;5.68;;;;;;;11.80;100.00;96099.56;4997408;28;20038;-74
2022/06/08 03:57:52;;;;;;;11.05;6.03;;;;;;;11.76;100.00;96101.16;4994513;28;20038;-74
2022/06/08 04:00:20;;;;;;;10.65;5.55;;;;;;;11.63;100.00;96093.59;4994206;28;20034;-73
2022/06/08 04:02:58;;;;;;;9.02;5.22;;;;;;;11.49;100.00;96103.22;4998665;28;20034;-75
2022/06/08 04:05:26;;;;;;;11.00;6.10;;;;;;;11.48;100.00;96106.94;4997160;28;20030;-74
2022/06/08 04:07:53;;;;;;;14.65;7.55;;;;;;;11.54;100.00;96113.94;5016046;28;20110;-72
2022/06/08 04:10:20;;;;;;;39.38;5.90;;;;;;;11.51;100.00;96117.13;4994333;28;20038;-74
2022/06/08 04:12:47;;;;;;;146.07;7.63;;;;;;;11.43;100.00;96123.81;5013660;28;20262;-72
2022/06/08 04:15:41;;;;;;;215.18;9.38;;;;;;;11.34;100.00;96122.69;4991460;28;20054;-73
2022/06/08 04:18:00;;;;;;;128.07;6.40;;;;;;;11.27;100.00;96119.44;4997750;28;20042;-73
2022/06/08 04:20:27;;;;;;;79.80;5.20;;;;;;;11.33;100.00;96118.41;4992673;28;20431;-73
2022/06/08 04:22:53;;;;;;;171.23;8.32;;;;;;;11.35;100.00;96118.94;5018126;28;20048;-75
2022/06/08 04:25:19;;;;;;;58.58;5.85;;;;;;;11.45;100.00;96129.72;4994566;28;20065;-73
2022/06/08 04:27:51;;;;;;;42.13;5.85;;;;;;;11.50;100.00;96123.56;5010665;28;20458;-74
2022/06/08 04:30:17;;;;;;;16.00;5.43;;;;;;;11.53;100.00;96117.69;5009583;28;20037;-74
2022/06/08 04:32:43;;;;;;;10.90;5.13;;;;;;;11.56;100.00;96109.13;5013444;28;20183;-72
2022/06/08 04:35:11;;;;;;;8.80;4.50;;;;;;;11.55;100.00;96115.56;4991937;28;20045;-72
2022/06/08 04:37:37;;;;;;;9.00;4.82;;;;;;;11.62;100.00;96108.09;4995729;28;20092;-74
2022/06/08 04:40:06;;;;;;;9.27;4.55;;;;;;;11.61;100.00;96107.28;4995660;28;20045;-73
2022/06/08 04:42:32;;;;;;;9.68;4.78;;;;;;;11.64;100.00;96097.91;5011612;28;20069;-74
2022/06/08 04:44:59;;;;;;;7.93;4.63;;;;;;;11.62;100.00;96097.38;4995295;28;20145;-73
2022/06/08 04:47:27;;;;;;;13.13;4.65;;;;;;;11.69;100.00;96114.81;4992736;28;20057;-74
2022/06/08 04:49:54;;;;;;;8.07;4.22;;;;;;;11.75;100.00;96102.22;5014283;28;20053;-72
2022/06/08 04:52:22;;;;;;;7.72;4.00;;;;;;;11.86;100.00;96103.09;4998037;28;20033;-73
2022/06/08 04:54:47;;;;;;;8.63;4.20;;;;;;;11.96;100.00;96103.91;4998054;28;20394;-74
2022/06/08 04:57:15;;;;;;;7.35;3.67;;;;;;;12.05;100.00;96106.06;4994055;28;20042;-74
2022/06/08 04:59:44;;;;;;;6.32;3.80;;;;;;;12.10;100.00;96101.50;5015461;28;20041;-74
2022/06/08 05:02:42;;;;;;;7.55;3.85;;;;;;;12.11;100.00;96100.44;4996963;28;20073;-73
2022/06/08 05:05:07;;;;;;;7.82;3.97;;;;;;;12.18;100.00;96092.13;4996654;28;20397;-73
2022/06/08 05:07:35;;;;;;;8.82;3.47;;;;;;;12.20;100.00;96092.66;4998356;28;20062;-73
2022/06/08 05:10:02;;;;;;;6.47;3.40;;;;;;;12.16;100.00;96089.72;4997408;28;20056;-72
2022/06/08 05:12:27;;;;;;;6.75;3.70;;;;;;;12.01;100.00;96086.22;4998824;28;20176;-75
2022/06/08 05:14:53;;;;;;;7.53;3.88;;;;;;;12.02;100.00;96094.00;4996381;28;20052;-73
2022/06/08 05:17:18;;;;;;;8.63;4.25;;;;;;;12.07;100.00;96088.66;5006312;28;20523;-73
2022/06/08 05:19:45;;;;;;;8.57;3.70;;;;;;;12.05;100.00;96085.41;4994817;28;20042;-75
2022/06/08 05:22:11;;;;;;;6.68;4.35;;;;;;;12.13;100.00;96078.72;4991421;28;20045;-73
2022/06/08 05:24:37;;;;;;;4.97;2.90;;;;;;;12.08;100.00;96084.09;5012751;28;20439;-74
2022/06/08 05:27:03;;;;;;;7.65;3.90;;;;;;;12.20;100.00;96079.25;4997116;28;20108;-72
2022/06/08 05:29:29;;;;;;;9.07;4.40;;;;;;;12.39;100.00;96084.91;4995462;28;20223;-74
2022/06/08 05:31:59;;;;;;;11.27;5.93;;;;;;;12.57;100.00;96084.34;4996654;28;20057;-75
2022/06/08 05:34:25;;;;;;;8.38;4.80;;;;;;;12.76;100.00;96072.00;4995807;28;20120;-72
2022/06/08 05:36:54;;;;;;;8.35;4.25;;;;;;;12.80;100.00;96066.88;5017111;28;20053;-73
2022/06/08 05:39:22;;;;;;;14.25;5.13;;;;;;;12.84;100.00;96065.28;4994464;28;20033;-73
2022/06/08 05:41:48;;;;;;;7.40;4.43;;;;;;;12.77;100.00;96070.91;4977217;28;20607;-74
2022/06/08 05:44:15;;;;;;;9.13;5.03;;;;;;;12.81;100.00;96068.47;4977897;28;20041;-74
2022/06/08 05:46:41;;;;;;;10.00;4.25;;;;;;;12.95;100.00;96068.72;4999127;28;20053;-72
2022/06/08 05:49:11;;;;;;;10.52;4.97;;;;;;;12.97;100.00;96067.38;4997336;28;20393;-72
2022/06/08 05:51:40;;;;;;;9.93;5.07;;;;;;;12.88;100.00;96078.94;4992517;28;20045;-72
2022/06/08 05:54:07;;;;;;;10.20;5.30;;;;;;;12.76;100.00;96073.84;4975712;28;20044;-72
2022/06/08 05:56:33;;;;;;;10.00;5.38;;;;;;;12.72;100.00;96068.22;5000674;28;20054;-75
2022/06/08 05:59:01;;;;;;;10.60;6.00;;;;;;;12.77;100.00;96076.28;4980250;28;20180;-72
2022/06/08 06:01:27;;;;;;;9.35;5.90;;;;;;;12.74;100.00;96076.81;4976007;28;20595;-72
2022/06/08 06:03:53;;;;;;;11.57;5.68;;;;;;;12.79;100.00;96081.38;4992626;28;20527;-72
2022/06/08 06:06:19;;;;;;;8.95;5.90;;;;;;;12.74;100.00;96076.00;4994693;28;20065;-75
2022/06/08 06:08:45;;;;;;;9.90;5.15;;;;;;;12.83;100.00;96087.81;4981504;28;20500;-73
2022/06/08 06:11:16;;;;;;;10.65;5.93;;;;;;;12.86;100.00;96084.59;4981155;28;20382;-72
2022/06/08 06:13:46;;;;;;;10.93;5.45;;;;;;;12.95;100.00;96080.28;4976186;28;20397;-72
2022/06/08 06:16:16;;;;;;;9.77;5.88;;;;;;;13.04;100.00;96070.56;4979459;28;20197;-72
2022/06/08 06:18:42;;;;;;;8.52;5.38;;;;;;;13.09;100.00;96073.25;4979703;28;20046;-72
2022/06/08 06:21:25;;;;;;;8.82;5.30;;;;;;;13.21;100.00;96074.84;4995726;28;20042;-74
2022/06/08 06:24:09;;;;;;;6.63;4.18;;;;;;;13.28;100.00;96064.63;4993990;28;20042;-72
2022/06/08 06:26:44;;;;;;;8.10;4.00;;;;;;;13.11;100.00;96064.91;4982064;28;20045;-72
2022/06/08 06:29:35;;;;;;;6.72;4.18;;;;;;;13.08;100.00;96060.09;4975054;28;20280;-73
2022/06/08 06:32:20;;;;;;;6.45;4.28;;;;;;;13.00;100.00;96053.41;5001730;28;20053;-73
2022/06/08 06:34:49;;;;;;;9.70;4.90;;;;;;;12.90;100.00;96050.72;4980441;28;20034;-72
2022/06/08 06:37:15;;;;;;;8.00;4.72;;;;;;;12.89;100.00;96061.75;4974434;28;20039;-73
2022/06/08 06:39:41;;;;;;;14.57;4.78;;;;;;;12.94;100.00;96053.69;4979515;28;20492;-72
2022/06/08 06:42:18;;;;;;;8.68;4.68;;;;;;;13.19;100.00;96055.50;4979408;28;20125;-72
2022/06/08 06:44:47;;;;;;;9.95;5.20;;;;;;;13.35;100.00;96049.00;4998247;28;20484;-73
2022/06/08 06:47:20;;;;;;;9.20;4.25;;;;;;;13.28;100.00;96032.38;4998039;28;20461;-72
2022/06/08 06:49:53;;;;;;;8.82;5.10;;;;;;;13.64;100.00;96033.81;4976980;28;20484;-73
2022/06/08 06:52:19;;;;;;;8.77;4.80;;;;;;;14.06;100.00;96035.13;4994779;28;20042;-73
2022/06/08 06:54:46;;;;;;;9.85;5.15;;;;;;;14.40;100.00;96027.06;4975191;28;20485;-73
2022/06/08 06:57:12;;;;;;;9.93;5.65;;;;;;;14.52;100.00;96026.72;4994973;28;20045;-74
2022/06/08 06:59:38;;;;;;;8.30;4.72;;;;;;;14.55;100.00;96030.72;4996872;28;20402;-75
2022/06/08 07:02:14;;;;;;;6.40;4.22;;;;;;;14.33;100.00;96021.22;4975811;28;20057;-72
2022/06/08 07:04:40;;;;;;;13.05;4.15;;;;;;;14.08;100.00;96019.50;4974482;28;20054;-73
2022/06/08 07:07:06;;;;;;;9.68;4.65;;;;;;;14.10;100.00;96027.31;4975700;28;20485;-73
2022/06/08 07:09:32;;;;;;;6.38;3.83;;;;;;;14.17;100.00;96031.31;4997786;28;20048;-74
2022/06/08 07:11:58;;;;;;;7.13;3.95;;;;;;;14.38;100.00;96028.41;4982644;28;20042;-72
2022/06/08 07:14:28;;;;;;;7.68;3.72;;;;;;;14.63;100.00;96019.34;4981884;28;20476;-72
2022/06/08 07:16:59;;;;;;;;;;;;;;;14.99;100.00;95999.00;4979650;28;20061;-72
2022/06/08 07:19:28;;;;;;;9.98;3.78;;;;;;;15.15;100.00;96004.22;5004573;28;19917;-73
2022/06/08 07:21:54;;;;;;;8.10;3.70;;;;;;;15.36;100.00;96002.88;5001993;28;20077;-72
2022/06/08 07:24:25;;;;;;;5.93;3.63;;;;;;;15.92;100.00;96001.31;4995698;28;20053;-72
2022/06/08 07:26:51;;;;;;;7.07;3.55;;;;;;;15.83;100.00;95991.19;5000430;28;20045;-73
2022/06/08 07:29:17;;;;;;;8.70;3.63;;;;;;;15.96;100.00;95992.38;4997690;28;20100;-73
2022/06/08 07:31:43;;;;;;;11.25;3.95;;;;;;;15.86;100.00;95987.91;5004835;28;20034;-72
2022/06/08 07:34:11;;;;;;;9.23;2.55;;;;;;;15.67;100.00;95987.13;4998097;28;20470;-73
2022/06/08 07:36:37;;;;;;;5.93;2.72;;;;;;;15.63;100.00;95983.38;4997434;28;20042;-72
2022/06/08 07:39:04;;;;;;;14.05;3.42;;;;;;;15.81;100.00;95988.00;4996957;28;20604;-75
2022/06/08 07:41:29;;;;;;;7.50;2.33;;;;;;;15.58;100.00;95978.06;4999096;28;20044;-72
2022/06/08 07:43:55;;;;;;;11.52;2.55;;;;;;;15.98;100.00;95970.47;4997989;28;20034;-73
2022/06/08 07:46:21;;;;;;;8.35;2.83;;;;;;;16.20;100.00;95962.56;4999192;28;20038;-75
2022/06/08 07:51:32;;;;;;;8.10;2.55;;;;;;;16.30;100.00;95956.97;4997249;28;20041;-75
2022/06/08 07:53:59;;;;;;;5.30;2.53;;;;;;;16.17;100.00;95957.72;4980265;28;20030;-72
2022/06/08 07:56:24;;;;;;;7.88;2.80;;;;;;;16.41;100.00;95944.09;4998543;28;20065;-73
2022/06/08 07:58:50;;;;;;;12.38;2.95;;;;;;;16.69;100.00;95939.56;4999665;28;20525;-73
2022/06/08 08:01:16;;;;;;;8.40;2.13;;;;;;;16.87;100.00;95935.94;4997768;28;20054;-73
2022/06/08 08:03:42;;;;;;;7.30;2.58;;;;;;;17.03;100.00;95938.34;4997116;28;21183;-73
2022/06/08 08:06:10;;;;;;;5.25;2.00;;;;;;;17.43;100.00;95926.69;4998638;28;20053;-72
2022/06/08 08:08:39;;;;;;;7.40;2.42;;;;;;;17.72;100.00;95928.19;4997686;28;20033;-72
2022/06/08 08:11:05;;;;;;;9.23;2.30;;;;;;;17.29;100.00;95936.72;4996146;28;20049;-71
2022/06/08 08:13:32;;;;;;;10.15;3.80;;;;;;;17.36;100.00;95930.91;4996277;28;20130;-72
2022/06/08 08:15:58;;;;;;;7.75;2.50;;;;;;;17.38;100.00;95934.88;4997851;28;20719;-72
2022/06/08 08:18:24;;;;;;;6.82;2.03;;;;;;;17.12;100.00;95931.13;4982619;28;20113;-71
2022/06/08 08:20:50;;;;;;;10.23;2.60;;;;;;;16.91;100.00;95930.75;4978362;28;20481;-71
2022/06/08 08:23:15;;;;;;;8.77;2.20;;;;;;;17.15;100.00;95923.22;4996223;28;20052;-72
2022/06/08 08:25:41;;;;;;;5.03;2.15;;;;;;;17.17;100.00;95925.59;4995761;28;20064;-72
2022/06/08 08:28:07;;;;;;;7.80;2.50;;;;;;;17.08;100.00;95930.13;4998164;28;20038;-71
2022/06/08 08:30:33;;;;;;;12.88;3.67;;;;;;;17.26;100.00;95918.38;4997109;28;20042;-74
2022/06/08 08:32:59;;;;;;;7.88;2.75;;;;;;;17.31;100.00;95923.69;4996100;28;20040;-71
2022/06/08 08:35:25;;;;;;;6.82;2.50;;;;;;;17.17;100.00;95917.50;4997429;28;20128;-72
2022/06/08 08:37:53;;;;;;;7.60;2.15;;;;;;;17.01;100.00;95916.22;4998585;28;20048;-74
2022/06/08 08:40:49;;;;;;;7.30;2.30;;;;;;;17.20;100.00;95908.81;4995937;28;20043;-72
2022/06/08 08:43:19;;;;;;;11.88;2.38;;;;;;;16.62;100.00;95898.59;4997584;28;20037;-72
2022/06/08 08:46:12;;;;;;;8.13;2.75;;;;;;;16.43;100.00;95906.81;4982624;28;20493;-72
2022/06/08 08:48:50;;;;;;;6.00;3.00;;;;;;;16.73;100.00;95901.91;4995439;28;20283;-73
2022/06/08 08:51:32;;;;;;;10.07;3.60;;;;;;;16.85;100.00;95902.22;4997699;28;20054;-72
2022/06/08 08:54:18;;;;;;;9.90;2.83;;;;;;;17.18;100.00;95905.59;4996813;28;20069;-72
2022/06/08 08:56:44;;;;;;;9.75;3.35;;;;;;;17.32;100.00;95897.44;4997491;28;20129;-72
2022/06/08 08:59:13;;;;;;;7.13;2.60;;;;;;;17.77;100.00;95890.22;4996091;28;20378;-72
2022/06/08 09:01:40;;;;;;;14.57;3.33;;;;;;;17.66;100.00;95883.41;4994355;28;20042;-72
2022/06/08 09:04:22;;;;;;;8.57;2.55;;;;;;;17.87;100.00;95881.81;4991874;28;20425;-74
2022/06/08 09:06:48;;;;;;;14.63;2.40;;;;;;;18.55;100.00;95880.59;4996364;28;20097;-72
2022/06/08 09:09:20;;;;;;;12.55;3.25;;;;;;;19.47;100.00;95880.66;4993989;28;20053;-73
2022/06/08 09:11:46;;;;;;;4.60;1.85;;;;;;;19.48;100.00;95874.13;4996601;28;20192;-72
2022/06/08 09:14:16;;;;;;;7.43;2.40;;;;;;;19.61;100.00;95870.47;4994191;28;20030;-72
2022/06/08 09:16:48;;;;;;;7.38;2.72;;;;;;;19.83;100.00;95874.91;4980511;28;20437;-72
2022/06/08 09:19:22;;;;;;;11.48;2.30;;;;;;;19.68;100.00;95864.53;4997238;28;20038;-72
2022/06/08 09:21:50;;;;;;;15.27;2.67;;;;;;;19.28;100.00;95859.25;4995755;28;20038;-72
2022/06/08 09:24:26;;;;;;;13.27;2.40;;;;;;;18.87;100.00;95856.97;4994449;28;20052;-72
2022/06/08 09:26:57;;;;;;;15.00;2.63;;;;;;;19.05;100.00;95849.66;4996412;28;20037;-72
2022/06/08 09:29:26;;;;;;;;;;;;;;;18.90;100.00;95853.63;4996091;28;20122;-73
2022/06/08 09:31:55;;;;;;;6.15;1.75;;;;;;;19.13;100.00;95844.25;4997724;28;19965;-72
2022/06/08 09:34:32;;;;;;;8.32;1.75;;;;;;;19.43;100.00;95844.44;4994650;28;20050;-74
2022/06/08 09:37:20;;;;;;;5.93;1.60;;;;;;;19.56;100.00;95832.63;4994088;28;20038;-72
2022/06/08 09:39:46;;;;;;;9.00;1.67;;;;;;;18.87;100.00;95838.00;4994389;28;20049;-73
2022/06/08 09:42:36;;;;;;;5.88;1.95;;;;;;;18.72;100.00;95831.09;4998750;28;20448;-74
2022/06/08 09:45:17;;;;;;;5.55;1.75;;;;;;;18.45;100.00;95826.72;4995043;28;20042;-72
2022/06/08 09:53:41;;;;;;;8.75;2.30;;;;;;;17.62;100.00;95836.44;4995652;28;20038;-72
2022/06/08 09:56:13;;;;;;;7.35;1.77;;;;;;;17.57;100.00;95836.56;4994747;28;20420;-72
2022/06/08 09:58:59;;;;;;;6.78;1.70;;;;;;;17.40;100.00;95840.72;4994912;28;20081;-72
2022/06/08 10:01:47;;;;;;;9.68;2.13;;;;;;;17.17;100.00;95836.41;4997051;28;20128;-72
2022/06/08 10:04:48;;;;;;;7.35;1.70;;;;;;;17.15;100.00;95838.63;4994222;28;20046;-72
2022/06/08 10:07:20;;;;;;;7.68;1.75;;;;;;;16.93;100.00;95836.66;4988753;28;20058;-73
2022/06/08 10:09:48;;;;;;;10.32;2.00;;;;;;;16.72;100.00;95839.00;4994418;28;20500;-72
2022/06/08 10:12:25;;;;;;;5.03;1.83;;;;;;;16.64;100.00;95839.66;4993784;28;20534;-72
2022/06/08 10:15:01;;;;;;;9.07;3.13;;;;;;;16.67;100.00;95844.50;4997404;28;20226;-73
2022/06/08 10:17:35;;;;;;;5.65;1.63;;;;;;;16.56;100.00;95848.47;4997633;28;20099;-71
2022/06/08 10:20:25;;;;;;;10.70;2.10;;;;;;;16.48;100.00;95852.69;4977246;28;20042;-73
2022/06/08 10:22:58;;;;;;;12.35;2.13;;;;;;;16.62;100.00;95852.69;4995135;28;20128;-72
2022/06/08 10:25:54;;;;;;;9.40;1.98;;;;;;;16.78;100.00;95867.50;4995581;28;20068;-73
2022/06/08 10:28:35;;;;;;;7.07;2.05;;;;;;;16.83;100.00;95867.41;4991986;28;20057;-72
2022/06/08 10:31:03;;;;;;;12.05;2.08;;;;;;;16.77;100.00;95865.91;4996178;28;20109;-74
2022/06/08 10:33:36;;;;;;;9.00;2.15;;;;;;;16.76;100.00;95867.00;4999341;28;20117;-74
2022/06/08 10:36:07;;;;;;;12.77;2.47;;;;;;;16.68;100.00;95862.28;4992530;28;20472;-71
2022/06/08 10:38:36;;;;;;;14.35;2.20;;;;;;;16.68;100.00;95862.28;4993353;28;20076;-72
2022/06/08 10:41:02;;;;;;;6.65;1.95;;;;;;;16.66;100.00;95853.69;4648947;28;10000012;-73
2022/06/08 10:43:31;;;;;;;7.05;1.90;;;;;;;16.77;100.00;95847.00;4646007;28;10000146;-72
2022/06/08 10:46:05;;;;;;;12.45;2.25;;;;;;;16.89;100.00;95846.50;4993779;28;20541;-73
2022/06/08 10:48:48;;;;;;;14.55;4.45;;;;;;;17.07;100.00;95842.03;4997645;28;20441;-73
2022/06/08 10:51:13;;;;;;;11.02;2.33;;;;;;;17.62;100.00;95841.84;4999375;28;20042;-72
2022/06/08 10:56:34;;;;;;;9.43;2.33;;;;;;;17.25;100.00;95830.28;4999296;28;20487;-72
2022/06/08 10:59:06;;;;;;;6.90;1.80;;;;;;;16.89;100.00;95828.38;4998625;28;20049;-71
2022/06/08 11:01:49;;;;;;;8.65;2.08;;;;;;;16.81;100.00;95834.50;5001696;28;20750;-72
2022/06/08 11:04:27;;;;;;;7.45;1.73;;;;;;;16.91;100.00;95833.47;4998320;28;20113;-73
2022/06/08 11:07:00;;;;;;;9.52;2.45;;;;;;;16.90;100.00;95837.28;4969115;28;20053;-73
2022/06/08 11:09:36;;;;;;;9.73;2.63;;;;;;;17.07;100.00;95840.13;4999031;28;20591;-73
2022/06/08 11:12:13;;;;;;;10.10;2.47;;;;;;;16.89;100.00;95832.97;4983070;28;20076;-72
2022/06/08 11:14:44;;;;;;;16.38;2.28;;;;;;;16.89;100.00;95844.59;4996466;28;20126;-73
2022/06/08 11:17:33;;;;;;;12.57;2.92;;;;;;;17.05;100.00;95850.47;4997942;28;20046;-72
2022/06/08 11:20:03;;;;;;;8.65;1.95;;;;;;;16.53;100.00;95863.41;4997781;28;20416;-72
2022/06/08 11:22:44;;;;;;;7.03;2.20;;;;;;;16.21;100.00;95866.97;4998609;28;20500;-72
2022/06/08 11:25:21;;;;;;;19.30;3.33;;;;;;;16.08;100.00;95886.66;4998961;28;20075;-72
2022/06/08 11:28:29;;;;;;;15.88;3.42;;;;;;;15.76;100.00;95901.75;4996111;28;20120;-71
2022/06/08 11:30:59;;;;;;;11.38;2.47;;;;;;;15.61;100.00;95883.13;4983860;28;20045;-72
2022/06/08 11:34:08;;;;;;;12.65;2.78;;;;;;;15.82;100.00;95867.41;4998133;28;20048;-72
2022/06/08 11:36:53;;;;;;;9.77;2.65;;;;;;;16.36;100.00;95855.91;4982978;28;20469;-74
2022/06/08 11:39:30;;;;;;;14.77;2.63;;;;;;;16.46;100.00;95849.50;4996799;28;20061;-72
2022/06/08 11:42:22;;;;;;;8.57;2.88;;;;;;;16.41;100.00;95847.69;4997846;28;20053;-72
2022/06/08 11:45:13;;;;;;;16.75;2.75;;;;;;;16.90;100.00;95838.09;4994276;28;20039;-73
2022/06/08 11:47:44;;;;;;;8.48;2.58;;;;;;;17.25;100.00;95838.38;4991496;28;20497;-72
2022/06/08 11:50:14;;;;;;;8.65;2.75;;;;;;;17.35;100.00;95840.84;4998674;28;20796;-72
2022/06/08 11:52:46;;;;;;;8.65;2.97;;;;;;;17.57;100.00;95833.84;5005928;28;20025;-72
2022/06/08 11:55:16;;;;;;;9.23;2.50;;;;;;;17.74;100.00;95824.00;4999133;28;20133;-74
2022/06/08 11:57:59;;;;;;;9.07;2.65;;;;;;;17.73;100.00;95829.69;4999070;28;20045;-72
2022/06/08 12:00:33;;;;;;;8.32;2.70;;;;;;;17.59;100.00;95837.03;4995124;28;20493;-72
2022/06/08 12:03:28;;;;;;;8.75;3.10;;;;;;;17.34;100.00;95843.84;4997895;28;20046;-72